Time;durP1;ratioP1;P1;durP2;ratioP2;P2;SDS_P1;SDS_P2;PMS_P1;PMS_P2;Temp;Humidity;BMP_temperature;BMP_pressure;BME280_temperature;BME280_humidity;BME280_pressure;Samples;Min_cycle;Max_cycle;Signal;HPM_P1;HPM_P2
2023/09/28 00:02:18;;;;;;;;;5.00;4.40;;;;;20.49;60.22;99693.13;5093356;28;8847;-61
2023/09/28 00:04:46;;;;;;;;;7.40;5.80;;;;;20.51;60.13;99690.25;5094052;28;8936;-61
2023/09/28 00:07:14;;;;;;;;;7.00;7.00;;;;;20.51;59.97;99684.84;5093797;28;8833;-59
2023/09/28 00:09:40;;;;;;;;;7.40;7.40;;;;;20.52;60.21;99686.50;5094125;28;8833;-61
2023/09/28 00:12:08;;;;;;;;;8.00;8.00;;;;;20.50;60.28;99684.00;5093715;28;8859;-61
2023/09/28 00:14:34;;;;;;;;;10.40;10.20;;;;;20.51;60.14;99679.41;5094297;28;8848;-60
2023/09/28 00:17:02;;;;;;;;;6.60;5.00;;;;;20.52;60.07;99664.84;5093721;28;8825;-61
2023/09/28 00:19:29;;;;;;;;;10.80;9.60;;;;;20.54;60.25;99676.34;5093806;28;8899;-61
2023/09/28 00:21:57;;;;;;;;;7.00;5.00;;;;;20.55;60.40;99678.84;5094634;28;8848;-61
2023/09/28 00:24:25;;;;;;;;;6.60;6.60;;;;;20.56;60.04;99683.22;5097849;28;8821;-61
2023/09/28 00:26:52;;;;;;;;;6.20;4.80;;;;;20.57;60.11;99687.63;5097713;28;9518;-61
2023/09/28 00:29:19;;;;;;;;;6.60;5.20;;;;;20.61;60.48;99696.16;5097229;28;8841;-61
2023/09/28 00:31:46;;;;;;;;;7.20;7.00;;;;;20.66;59.88;99707.28;5097871;28;8839;-61
2023/09/28 00:34:14;;;;;;;;;8.40;8.00;;;;;20.65;60.27;99706.44;5097213;28;9549;-61
2023/09/28 00:36:41;;;;;;;;;6.20;5.00;;;;;20.66;60.26;99718.94;5096947;28;8841;-58
2023/09/28 00:39:09;;;;;;;;;6.60;6.60;;;;;20.64;60.19;99707.44;5097242;28;8845;-59
2023/09/28 00:41:38;;;;;;;;;5.00;5.00;;;;;20.60;60.01;99721.56;5098109;28;8833;-60
2023/09/28 00:44:06;;;;;;;;;7.40;7.00;;;;;20.55;60.05;99705.91;5097338;28;8829;-61
2023/09/28 00:46:33;;;;;;;;;9.60;8.00;;;;;20.54;60.25;99722.34;5097020;28;8845;-61
2023/09/28 00:49:03;;;;;;;;;4.80;4.80;;;;;20.54;60.38;99714.22;5097541;28;8876;-59
2023/09/28 00:51:32;;;;;;;;;7.40;7.40;;;;;20.56;60.33;99725.69;5097575;28;8837;-59
2023/09/28 00:54:01;;;;;;;;;7.60;7.60;;;;;20.61;60.33;99744.88;5097196;28;8825;-60
2023/09/28 00:56:28;;;;;;;;;8.00;7.40;;;;;20.66;60.30;99742.47;5096912;28;8821;-61
2023/09/28 00:58:56;;;;;;;;;7.60;7.60;;;;;20.64;59.89;99742.63;5096561;28;8945;-60
2023/09/28 01:01:29;;;;;;;;;7.00;7.00;;;;;20.61;59.99;99734.91;5097300;28;8955;-60
2023/09/28 01:04:00;;;;;;;;;5.00;5.00;;;;;20.58;60.15;99738.00;5096758;28;8864;-60
2023/09/28 01:06:27;;;;;;;;;7.00;6.60;;;;;20.57;60.24;99733.63;5096899;28;8853;-61
2023/09/28 01:08:54;;;;;;;;;7.40;7.40;;;;;20.59;60.37;99731.56;5097131;28;8832;-59
2023/09/28 01:11:21;;;;;;;;;5.80;5.20;;;;;20.60;60.25;99749.47;5097010;28;8833;-60
2023/09/28 01:13:49;;;;;;;;;5.40;5.40;;;;;20.60;59.88;99733.25;5096937;28;8906;-61
2023/09/28 01:16:16;;;;;;;;;7.00;7.00;;;;;20.60;60.40;99738.66;5096843;28;8829;-59
2023/09/28 01:18:44;;;;;;;;;8.00;7.00;;;;;20.60;60.14;99733.25;5096141;28;8830;-61
2023/09/28 01:21:10;;;;;;;;;6.20;5.80;;;;;20.57;60.18;99736.34;5096703;28;9537;-59
2023/09/28 01:23:38;;;;;;;;;7.00;7.00;;;;;20.55;60.53;99738.38;5097225;28;8849;-59
2023/09/28 01:26:06;;;;;;;;;8.00;7.00;;;;;20.60;60.08;99727.81;5096109;28;8847;-60
2023/09/28 01:28:35;;;;;;;;;6.20;6.20;;;;;20.66;59.81;99721.66;5096596;28;8833;-61
2023/09/28 01:31:01;;;;;;;;;5.00;5.00;;;;;20.70;59.95;99725.63;5096246;28;8841;-60
2023/09/28 01:33:29;;;;;;;;;8.00;8.00;;;;;20.72;59.78;99730.88;5096025;28;8841;-59
2023/09/28 01:35:57;;;;;;;;;7.60;5.00;;;;;20.70;59.85;99727.53;5096726;28;8837;-59
2023/09/28 01:38:24;;;;;;;;;7.40;7.40;;;;;20.67;59.69;99732.28;5096927;28;8864;-59
2023/09/28 01:40:51;;;;;;;;;7.00;7.00;;;;;20.65;60.08;99730.81;5095802;28;8883;-58
2023/09/28 01:43:18;;;;;;;;;1.00;1.00;;;;;20.65;59.97;99732.66;5096469;28;8833;-59
2023/09/28 01:45:45;;;;;;;;;7.20;7.20;;;;;20.66;59.54;99715.38;5096441;28;8853;-61
2023/09/28 01:48:12;;;;;;;;;7.60;7.60;;;;;20.66;59.67;99720.81;5096018;28;8855;-61
2023/09/28 01:50:40;;;;;;;;;7.00;5.80;;;;;20.66;60.04;99724.38;5095890;28;8904;-60
2023/09/28 01:53:06;;;;;;;;;6.20;5.80;;;;;20.63;59.88;99711.19;5095719;28;8860;-60
2023/09/28 01:55:35;;;;;;;;;6.20;5.80;;;;;20.63;60.01;99707.66;5096512;28;9574;-61
2023/09/28 01:58:03;;;;;;;;;7.00;5.00;;;;;20.63;59.75;99702.25;5095744;28;8833;-61
2023/09/28 02:00:30;;;;;;;;;5.00;5.00;;;;;20.67;59.64;99706.25;5095790;28;8842;-60
2023/09/28 02:02:57;;;;;;;;;4.80;4.80;;;;;20.70;59.84;99709.41;5096221;28;8834;-61
2023/09/28 02:05:25;;;;;;;;;6.60;5.80;;;;;20.75;59.62;99704.25;5095370;28;8838;-61
2023/09/28 02:07:52;;;;;;;;;7.00;7.00;;;;;20.78;59.38;99717.41;5095897;28;8896;-60
2023/09/28 02:10:20;;;;;;;;;7.40;7.40;;;;;20.80;59.42;99718.88;5095579;28;8834;-61
2023/09/28 02:12:47;;;;;;;;;7.00;6.60;;;;;20.80;59.60;99720.78;5095369;28;8825;-60
2023/09/28 02:15:15;;;;;;;;;7.00;7.00;;;;;20.81;59.21;99723.25;5095669;28;9519;-61
2023/09/28 02:17:42;;;;;;;;;5.00;5.00;;;;;20.82;59.09;99722.22;5095720;28;8814;-59
2023/09/28 02:20:10;;;;;;;;;7.00;7.00;;;;;20.81;59.66;99719.75;5095077;28;8830;-59
2023/09/28 02:22:41;;;;;;;;;4.00;4.00;;;;;20.79;59.14;99727.19;5095651;28;9484;-61
2023/09/28 02:25:09;;;;;;;;;4.00;3.20;;;;;20.77;59.37;99717.63;5095720;28;8844;-61
2023/09/28 02:27:36;;;;;;;;;5.80;5.80;;;;;20.74;59.21;99714.22;5095736;28;8818;-61
2023/09/28 02:30:06;;;;;;;;;7.00;5.00;;;;;20.74;59.25;99713.41;5095502;28;8964;-59
2023/09/28 02:32:33;;;;;;;;;7.00;7.00;;;;;20.71;59.71;99719.19;5094763;28;8834;-58
2023/09/28 02:35:00;;;;;;;;;4.80;4.80;;;;;20.68;59.62;99708.75;5095861;28;8830;-61
2023/09/28 02:37:27;;;;;;;;;4.80;4.40;;;;;20.68;59.79;99730.41;5095165;28;8866;-59
2023/09/28 02:39:55;;;;;;;;;6.20;6.20;;;;;20.65;59.45;99730.81;5095471;28;8810;-60
2023/09/28 02:42:21;;;;;;;;;7.00;6.60;;;;;20.65;59.78;99733.53;5094878;28;8880;-61
2023/09/28 02:44:49;;;;;;;;;7.00;7.00;;;;;20.62;59.41;99725.75;5094451;28;8822;-61
2023/09/28 02:47:15;;;;;;;;;7.00;7.00;;;;;20.61;60.06;99715.13;5094970;28;8814;-61
2023/09/28 02:49:44;;;;;;;;;7.20;7.20;;;;;20.56;59.79;99718.41;5095558;28;8837;-61
2023/09/28 02:52:10;;;;;;;;;4.00;4.00;;;;;20.54;60.10;99736.69;5095124;28;8818;-61
2023/09/28 02:54:38;;;;;;;;;2.00;2.00;;;;;20.49;59.57;99724.78;5094793;28;8822;-60
2023/09/28 02:57:05;;;;;;;;;8.00;7.40;;;;;20.46;59.94;99730.59;5095016;28;8829;-60
2023/09/28 02:59:32;;;;;;;;;7.00;6.60;;;;;20.45;60.37;99735.13;5094656;28;9542;-60
2023/09/28 03:01:59;;;;;;;;;5.60;5.40;;;;;20.45;60.32;99735.13;5094268;28;8829;-61
2023/09/28 03:04:26;;;;;;;;;7.40;7.00;;;;;20.44;60.13;99722.66;5094713;28;8937;-60
2023/09/28 03:06:54;;;;;;;;;7.60;7.60;;;;;20.41;60.02;99722.19;5095515;28;8856;-61
2023/09/28 03:09:21;;;;;;;;;7.00;7.00;;;;;20.39;59.90;99730.47;5094825;28;8838;-61
2023/09/28 03:11:57;;;;;;;;;6.20;6.20;;;;;20.36;60.42;99736.28;5094581;28;8825;-61
2023/09/28 03:14:25;;;;;;;;;7.20;5.40;;;;;20.32;60.48;99743.09;5094581;28;8853;-60
2023/09/28 03:16:52;;;;;;;;;5.80;5.80;;;;;20.28;60.27;99738.25;5095489;28;9745;-60
2023/09/28 03:19:19;;;;;;;;;6.20;5.80;;;;;20.23;60.66;99738.81;5094630;28;8871;-61
2023/09/28 03:21:46;;;;;;;;;7.40;7.00;;;;;20.17;60.80;99736.84;5095034;28;8833;-61
2023/09/28 03:24:14;;;;;;;;;7.40;7.40;;;;;20.11;60.95;99734.88;5094373;28;8849;-61
2023/09/28 03:26:40;;;;;;;;;10.20;9.80;;;;;20.03;60.83;99732.25;5095114;28;8931;-61
2023/09/28 03:29:08;;;;;;;;;7.00;5.00;;;;;19.96;61.17;99744.84;5094497;28;8856;-61
2023/09/28 03:31:35;;;;;;;;;5.00;5.00;;;;;19.89;61.07;99743.91;5093823;28;8828;-61
2023/09/28 03:34:02;;;;;;;;;6.20;6.20;;;;;19.82;61.53;99759.22;5094545;28;8841;-61
2023/09/28 03:36:30;;;;;;;;;5.00;2.00;;;;;19.73;61.76;99763.00;5094057;28;8848;-61
2023/09/28 03:38:58;;;;;;;;;5.80;5.80;;;;;19.64;61.55;99766.81;5094095;28;8833;-61
2023/09/28 03:41:26;;;;;;;;;7.00;5.40;;;;;19.53;62.12;99771.81;5093430;28;8833;-61
2023/09/28 03:43:54;;;;;;;;;7.00;7.00;;;;;19.40;62.35;99777.84;5094152;28;8825;-61
2023/09/28 03:46:22;;;;;;;;;6.60;6.60;;;;;19.32;62.66;99777.91;5093745;28;8902;-61
2023/09/28 03:48:50;;;;;;;;;7.00;7.00;;;;;19.28;62.36;99784.69;5093716;28;8848;-61
2023/09/28 03:51:17;;;;;;;;;5.20;5.00;;;;;19.25;62.34;99778.81;5094155;28;8879;-60
2023/09/28 03:53:45;;;;;;;;;8.40;7.60;;;;;19.28;62.15;99784.69;5094388;28;8847;-59
2023/09/28 03:56:12;;;;;;;;;4.00;4.00;;;;;19.32;62.33;99783.31;5093604;28;8821;-58
2023/09/28 03:58:40;;;;;;;;;4.80;4.80;;;;;19.37;62.51;99780.06;5097616;28;8845;-58
2023/09/28 04:01:08;;;;;;;;;4.60;4.60;;;;;19.40;61.92;99777.84;5097972;28;8859;-57
2023/09/28 04:03:36;;;;;;;;;9.40;7.00;;;;;19.44;61.86;99786.44;5097429;28;8841;-58
2023/09/28 04:06:04;;;;;;;;;5.80;5.40;;;;;19.46;61.41;99787.09;5097147;28;8844;-58
2023/09/28 04:08:31;;;;;;;;;4.80;4.80;;;;;19.46;61.87;99787.94;5097824;28;8825;-58
2023/09/28 04:10:59;;;;;;;;;7.60;7.00;;;;;19.44;61.70;99794.53;5098198;28;8910;-58
2023/09/28 04:13:26;;;;;;;;;5.20;5.20;;;;;19.44;61.92;99797.25;5098542;28;8833;-58
2023/09/28 04:15:54;;;;;;;;;4.00;4.00;;;;;19.43;61.93;99798.25;5096758;28;8835;-61
2023/09/28 04:18:22;;;;;;;;;6.00;6.00;;;;;19.44;61.87;99795.38;5097312;28;8828;-61
2023/09/28 04:20:50;;;;;;;;;5.20;5.20;;;;;19.48;61.82;99794.00;5097745;28;8835;-61
2023/09/28 04:23:17;;;;;;;;;7.00;7.00;;;;;19.49;61.87;99798.38;5097104;28;8855;-61
2023/09/28 04:25:45;;;;;;;;;6.60;6.20;;;;;19.51;61.41;99799.00;5096986;28;8966;-60
2023/09/28 04:28:13;;;;;;;;;7.00;6.60;;;;;19.55;61.57;99803.03;5096799;28;8898;-59
2023/09/28 04:30:41;;;;;;;;;7.00;6.00;;;;;19.57;61.30;99798.28;5097175;28;8833;-59
2023/09/28 04:33:08;;;;;;;;;8.80;7.00;;;;;19.59;61.21;99798.97;5097178;28;8841;-61
2023/09/28 04:35:37;;;;;;;;;4.00;4.00;;;;;19.60;61.75;99807.91;5096966;28;8847;-59
2023/09/28 04:38:04;;;;;;;;;5.20;5.20;;;;;19.59;61.21;99809.78;5096542;28;8861;-61
2023/09/28 04:40:32;;;;;;;;;4.20;3.80;;;;;19.56;61.14;99809.31;5096865;28;8837;-59
2023/09/28 04:43:00;;;;;;;;;7.00;7.00;;;;;19.50;61.77;99810.84;5096355;28;8853;-59
2023/09/28 04:45:28;;;;;;;;;7.00;7.00;;;;;19.47;61.49;99813.91;5096540;28;8833;-61
2023/09/28 04:47:56;;;;;;;;;7.20;7.20;;;;;19.43;62.00;99812.59;5096505;28;8829;-59
2023/09/28 04:50:24;;;;;;;;;5.80;4.40;;;;;19.44;61.59;99821.53;5096319;28;8979;-61
2023/09/28 04:52:51;;;;;;;;;5.40;5.40;;;;;19.44;61.73;99832.34;5096108;28;8955;-61
2023/09/28 04:55:19;;;;;;;;;6.00;5.60;;;;;19.43;61.45;99831.50;5096440;28;8967;-58
2023/09/28 04:57:47;;;;;;;;;4.00;4.00;;;;;19.44;61.96;99826.94;5096506;28;8858;-58
2023/09/28 05:00:16;;;;;;;;;5.20;4.00;;;;;19.42;61.65;99827.13;5096170;28;8922;-57
2023/09/28 05:02:45;;;;;;;;;5.00;5.00;;;;;19.41;61.64;99830.03;5095977;28;8849;-58
2023/09/28 05:05:13;;;;;;;;;7.00;7.00;;;;;19.38;62.04;99825.81;5095369;28;9561;-57
2023/09/28 05:07:41;;;;;;;;;7.00;7.00;;;;;19.37;61.68;99834.94;5095410;28;8887;-58
2023/09/28 05:10:09;;;;;;;;;7.60;6.00;;;;;19.38;62.11;99825.81;5094271;28;8859;-59
2023/09/28 05:12:37;;;;;;;;;7.00;6.40;;;;;19.38;61.79;99823.13;5095142;28;8817;-57
2023/09/28 05:15:04;;;;;;;;;7.00;7.00;;;;;19.37;61.87;99831.38;5095101;28;8837;-57
2023/09/28 05:17:33;;;;;;;;;7.80;7.00;;;;;19.35;61.85;99830.75;5092923;28;8848;-58
2023/09/28 05:20:00;;;;;;;;;9.00;8.40;;;;;19.33;62.09;99846.25;5094058;28;8869;-58
2023/09/28 05:22:28;;;;;;;;;6.80;6.80;;;;;19.30;62.26;99833.97;5092743;28;8825;-59
2023/09/28 05:24:56;;;;;;;;;7.00;7.00;;;;;19.29;61.98;99832.31;5093284;28;8859;-58
2023/09/28 05:27:24;;;;;;;;;7.00;7.00;;;;;19.26;61.82;99840.75;5093778;28;8841;-59
2023/09/28 05:29:52;;;;;;;;;6.40;6.40;;;;;19.23;62.18;99849.22;5093398;28;8837;-56
2023/09/28 05:32:19;;;;;;;;;7.00;7.00;;;;;19.20;62.54;99846.84;5094361;28;8883;-58
2023/09/28 05:34:48;;;;;;;;;7.40;6.80;;;;;19.16;62.10;99853.63;5093674;28;8848;-59
2023/09/28 05:37:15;;;;;;;;;6.20;6.20;;;;;19.15;62.43;99860.03;5093648;28;8837;-59
2023/09/28 05:39:43;;;;;;;;;8.60;7.80;;;;;19.12;61.98;99857.69;5093039;28;8875;-57
2023/09/28 05:42:10;;;;;;;;;8.20;8.20;;;;;19.09;62.80;99860.75;5093537;28;8864;-57
2023/09/28 05:44:39;;;;;;;;;5.80;5.80;;;;;19.07;62.64;99857.41;5093489;28;8845;-56
2023/09/28 05:47:06;;;;;;;;;5.80;5.80;;;;;19.06;62.52;99874.59;5093865;28;8832;-59
2023/09/28 05:49:34;;;;;;;;;6.00;5.20;;;;;19.03;62.54;99869.56;5093199;28;8879;-59
2023/09/28 05:52:02;;;;;;;;;6.20;6.20;;;;;19.01;62.78;99876.16;5092899;28;8825;-58
2023/09/28 05:54:30;;;;;;;;;7.40;7.40;;;;;18.98;62.85;99865.72;5092903;28;8845;-59
2023/09/28 05:56:57;;;;;;;;;7.00;7.00;;;;;18.95;62.56;99864.19;5092310;28;8828;-56
2023/09/28 05:59:25;;;;;;;;;7.00;7.00;;;;;18.89;63.06;99861.38;5092615;28;8841;-58
2023/09/28 06:01:53;;;;;;;;;6.40;5.40;;;;;18.81;62.93;99864.94;5092082;28;8829;-58
2023/09/28 06:04:21;;;;;;;;;7.60;6.60;;;;;18.73;63.42;99870.38;5091212;28;9552;-57
2023/09/28 06:06:50;;;;;;;;;6.60;6.60;;;;;18.65;63.72;99865.03;5091876;28;8853;-59
2023/09/28 06:09:20;;;;;;;;;4.00;4.00;;;;;18.58;63.79;99865.91;5090850;28;8923;-59
2023/09/28 06:11:48;;;;;;;;;9.80;9.40;;;;;18.53;63.58;99858.31;5090026;28;8829;-59
2023/09/28 06:14:16;;;;;;;;;11.20;9.00;;;;;18.50;64.19;99866.78;5090151;28;8841;-57
2023/09/28 06:16:44;;;;;;;;;9.00;7.00;;;;;18.47;64.02;99877.91;5090507;28;8829;-59
2023/09/28 06:19:12;;;;;;;;;6.40;6.40;;;;;18.46;63.66;99881.63;5090970;28;8856;-59
2023/09/28 06:21:40;;;;;;;;;10.00;9.00;;;;;18.48;64.06;99886.84;5091471;28;8833;-57
2023/09/28 06:24:07;;;;;;;;;10.60;9.80;;;;;18.50;63.92;99885.66;5092278;28;8843;-57
2023/09/28 06:26:37;;;;;;;;;9.20;9.00;;;;;18.53;63.78;99893.38;5093213;28;8833;-56
2023/09/28 06:29:10;;;;;;;;;7.00;7.00;;;;;18.55;64.02;99902.16;5093851;28;8841;-56
2023/09/28 06:31:38;;;;;;;;;9.80;9.00;;;;;18.59;63.46;99908.06;5093245;28;9494;-56
2023/09/28 06:34:06;;;;;;;;;6.00;6.00;;;;;18.65;63.90;99923.53;5092410;28;8995;-59
2023/09/28 06:36:34;;;;;;;;;9.20;9.20;;;;;18.70;63.42;99916.63;5092571;28;8849;-57
2023/09/28 06:39:09;;;;;;;;;8.60;8.20;;;;;18.79;63.15;99925.50;5091360;28;8841;-56
2023/09/28 06:41:37;;;;;;;;;5.60;4.00;;;;;18.88;63.02;99937.97;5090445;28;8845;-58
2023/09/28 06:44:05;;;;;;;;;6.80;6.80;;;;;18.94;63.23;99939.94;5091595;28;8849;-58
2023/09/28 06:46:34;;;;;;;;;4.20;3.00;;;;;18.95;63.22;99947.88;5091637;28;8837;-58
2023/09/28 06:49:05;;;;;;;;;4.00;4.00;;;;;18.92;63.00;99953.63;5091188;28;8977;-58
2023/09/28 06:51:34;;;;;;;;;7.40;6.80;;;;;18.87;63.13;99944.34;5091327;28;8871;-58
2023/09/28 06:54:02;;;;;;;;;6.80;6.40;;;;;18.86;63.18;99948.94;5091591;28;8851;-58
2023/09/28 06:56:30;;;;;;;;;7.80;7.00;;;;;18.80;63.79;99946.94;5092183;28;8836;-56
2023/09/28 06:58:58;;;;;;;;;9.00;7.80;;;;;18.80;63.22;99965.81;5092777;28;8940;-58
2023/09/28 07:01:26;;;;;;;;;7.40;6.60;;;;;18.88;63.07;99962.25;5092424;28;8847;-58
2023/09/28 07:03:54;;;;;;;;;9.00;9.00;;;;;18.99;63.39;99954.63;5093146;28;8876;-57
2023/09/28 07:06:22;;;;;;;;;6.00;5.20;;;;;19.11;62.55;99947.81;5092046;28;8826;-58
2023/09/28 07:08:50;;;;;;;;;6.00;6.00;;;;;19.24;62.19;99947.25;5091702;28;8844;-59
2023/09/28 07:11:19;;;;;;;;;3.00;3.00;;;;;19.36;61.98;99954.78;5091290;28;8837;-58
2023/09/28 07:13:47;;;;;;;;;6.00;6.00;;;;;19.52;62.14;99956.56;5090812;28;8868;-59
2023/09/28 07:16:15;;;;;;;;;10.40;9.20;;;;;19.67;62.15;99949.38;5089515;28;8842;-58
2023/09/28 07:18:43;;;;;;;;;6.00;6.00;;;;;19.80;61.62;99955.84;5089335;28;8838;-59
2023/09/28 07:21:10;;;;;;;;;9.60;9.60;;;;;19.93;61.07;99955.25;5090334;28;8840;-57
2023/09/28 07:23:41;;;;;;;;;7.60;7.00;;;;;20.02;61.06;99955.00;5090310;28;8838;-59
2023/09/28 07:26:09;;;;;;;;;10.00;10.00;;;;;20.15;60.82;99965.22;5090608;28;8964;-56
2023/09/28 07:28:37;;;;;;;;;8.20;8.20;;;;;20.25;60.98;99960.44;5091065;28;9299;-58
2023/09/28 07:31:05;;;;;;;;;6.80;6.80;;;;;20.34;60.58;99965.56;5091009;28;8821;-57
2023/09/28 07:33:34;;;;;;;;;7.00;7.00;;;;;20.41;60.33;99961.09;5090281;28;8858;-58
2023/09/28 07:36:05;;;;;;;;;9.20;8.00;;;;;20.51;60.50;99960.84;5091474;28;8826;-59
2023/09/28 07:38:33;;;;;;;;;7.20;7.20;;;;;20.59;60.21;99968.88;5091486;28;8892;-59
2023/09/28 07:41:01;;;;;;;;;4.20;2.00;;;;;20.67;60.09;99966.06;5091833;28;8867;-58
2023/09/28 07:43:29;;;;;;;;;7.00;7.00;;;;;20.78;60.32;99969.16;5092351;28;8911;-57
2023/09/28 07:45:58;;;;;;;;;8.00;8.00;;;;;20.87;59.88;99954.56;5092323;28;8822;-57
2023/09/28 07:48:25;;;;;;;;;9.20;8.00;;;;;20.93;60.11;99961.91;5092225;28;8873;-58
2023/09/28 07:50:53;;;;;;;;;10.00;8.00;;;;;20.99;59.71;99969.28;5090608;28;8830;-59
2023/09/28 07:53:21;;;;;;;;;8.40;8.40;;;;;21.06;60.12;99972.94;5090767;28;9314;-59
2023/09/28 07:55:49;;;;;;;;;8.80;7.00;;;;;21.13;59.91;99969.31;5091510;28;8918;-59
2023/09/28 07:58:17;;;;;;;;;9.40;9.40;;;;;21.18;59.99;99974.16;5090475;28;8848;-59
2023/09/28 08:00:54;;;;;;;;;5.40;5.40;;;;;21.21;60.13;99973.75;5090387;28;8828;-59
2023/09/28 08:03:22;;;;;;;;;11.00;10.00;;;;;21.23;59.48;99974.41;5091807;28;8862;-59
2023/09/28 08:05:52;;;;;;;;;8.40;8.20;;;;;21.25;59.99;99988.63;5091582;28;8838;-58
2023/09/28 08:08:20;;;;;;;;;10.80;10.80;;;;;21.26;59.69;99987.59;5092401;28;9623;-59
2023/09/28 08:10:48;;;;;;;;;9.80;9.00;;;;;21.28;60.20;99999.06;5091104;28;8849;-59
2023/09/28 08:13:16;;;;;;;;;9.80;9.20;;;;;21.34;60.07;99995.63;5091279;28;8849;-59
2023/09/28 08:15:44;;;;;;;;;9.80;9.40;;;;;21.36;60.09;99999.81;5089873;28;8853;-59
2023/09/28 08:18:13;;;;;;;;;9.20;8.00;;;;;21.43;59.55;100002.59;5089588;28;8833;-58
2023/09/28 08:20:43;;;;;;;;;8.00;7.40;;;;;21.46;59.73;100010.34;5090200;28;8822;-56
2023/09/28 08:23:27;;;;;;;;;7.00;7.00;;;;;21.49;59.94;100008.09;5090642;28;8968;-57
2023/09/28 08:25:55;;;;;;;;;8.00;7.60;;;;;21.54;59.61;100007.53;5091173;28;9583;-57
2023/09/28 08:28:24;;;;;;;;;8.80;8.80;;;;;21.62;59.34;100008.25;5091511;28;8927;-58
2023/09/28 08:30:53;;;;;;;;;10.60;9.20;;;;;21.77;59.21;100010.94;5091296;28;8846;-57
2023/09/28 08:33:24;;;;;;;;;10.40;10.40;;;;;21.96;58.93;100010.34;5091389;28;8845;-57
2023/09/28 08:35:52;;;;;;;;;9.20;9.20;;;;;22.20;58.85;100021.66;5091413;28;8822;-57
2023/09/28 08:38:21;;;;;;;;;8.00;8.00;;;;;22.51;58.38;100018.59;5091646;28;8842;-59
2023/09/28 08:40:49;;;;;;;;;8.80;8.00;;;;;22.80;57.53;100016.56;5090586;28;8842;-59
2023/09/28 08:43:18;;;;;;;;;4.00;4.00;;;;;22.94;57.68;100012.91;5092101;28;8846;-57
2023/09/28 08:45:45;;;;;;;;;9.60;9.60;;;;;22.95;57.58;100016.44;5095135;28;8830;-59
2023/09/28 08:48:14;;;;;;;;;10.80;10.20;;;;;22.91;57.98;100013.28;5095479;28;8863;-57
2023/09/28 08:50:42;;;;;;;;;9.80;8.40;;;;;22.82;57.72;100011.75;5094119;28;8844;-58
2023/09/28 08:53:09;;;;;;;;;13.20;10.00;;;;;22.73;57.96;100025.69;5094368;28;8837;-58
2023/09/28 08:55:37;;;;;;;;;5.40;5.40;;;;;22.60;58.60;100015.56;5094495;28;8956;-58
2023/09/28 08:58:05;;;;;;;;;9.00;9.00;;;;;22.50;59.09;100009.63;5094636;28;8960;-58
2023/09/28 09:00:34;;;;;;;;;8.00;8.00;;;;;22.45;59.23;100011.25;5094480;28;9549;-60
2023/09/28 09:03:04;;;;;;;;;9.60;9.60;;;;;22.42;59.15;100017.06;5094143;28;8982;-58
2023/09/28 09:05:32;;;;;;;;;9.60;8.80;;;;;22.42;59.17;100033.34;5094809;28;8830;-60
2023/09/28 09:08:00;;;;;;;;;10.80;9.00;;;;;22.49;58.84;100028.81;5094985;28;9622;-59
2023/09/28 09:10:28;;;;;;;;;11.80;9.80;;;;;22.56;58.62;100027.88;5093968;28;8852;-59
2023/09/28 09:12:56;;;;;;;;;6.20;6.20;;;;;22.61;58.92;100030.00;5093465;28;8837;-59
2023/09/28 09:15:24;;;;;;;;;9.00;9.00;;;;;22.67;58.64;100040.88;5093617;28;8826;-57
2023/09/28 09:17:52;;;;;;;;;8.00;6.60;;;;;22.73;58.30;100039.25;5093987;28;8834;-57
2023/09/28 09:20:21;;;;;;;;;8.00;7.00;;;;;22.85;58.30;100048.56;5094034;28;9567;-57
2023/09/28 09:22:50;;;;;;;;;6.20;6.20;;;;;22.98;58.29;100046.75;5094582;28;9745;-58
2023/09/28 09:25:28;;;;;;;;;11.20;9.00;;;;;23.07;57.60;100034.69;5094488;28;9026;-58
2023/09/28 09:27:56;;;;;;;;;8.60;8.20;;;;;23.15;58.10;100039.19;5094796;28;9506;-59
2023/09/28 09:30:28;;;;;;;;;9.00;9.00;;;;;23.25;57.62;100050.53;5094462;28;8849;-58
2023/09/28 09:32:55;;;;;;;;;9.00;9.00;;;;;23.25;57.53;100054.09;5094338;28;8952;-59
2023/09/28 09:35:25;;;;;;;;;7.60;6.40;;;;;23.22;57.55;100057.19;5094542;28;8825;-58
2023/09/28 09:37:54;;;;;;;;;9.80;9.00;;;;;23.19;58.28;100046.72;5093922;28;8836;-60
2023/09/28 09:40:22;;;;;;;;;10.20;9.20;;;;;23.12;58.36;100050.41;5094500;28;8837;-59
2023/09/28 09:42:50;;;;;;;;;8.00;7.20;;;;;23.05;58.33;100049.50;5094250;28;8842;-57
2023/09/28 09:45:17;;;;;;;;;6.80;6.40;;;;;23.04;58.48;100051.41;5093951;28;8822;-57
2023/09/28 09:47:46;;;;;;;;;6.40;5.60;;;;;23.07;58.84;100042.84;5094662;28;8836;-58
2023/09/28 09:50:13;;;;;;;;;10.60;10.20;;;;;23.16;58.60;100038.13;5093569;28;8825;-57
2023/09/28 09:52:41;;;;;;;;;8.80;8.60;;;;;23.49;57.29;100039.13;5093039;28;8988;-57
2023/09/28 09:55:09;;;;;;;;;6.40;6.00;;;;;23.80;56.65;100040.31;5092498;28;8818;-60
2023/09/28 09:57:37;;;;;;;;;8.20;7.60;;;;;23.97;56.21;100035.41;5093553;28;8822;-59
2023/09/28 10:00:06;;;;;;;;;6.00;6.00;;;;;24.36;55.91;100038.19;5093382;28;8923;-59
2023/09/28 10:02:34;;;;;;;;;9.00;8.40;;;;;24.80;55.24;100041.19;5092207;28;8849;-58
2023/09/28 10:05:02;;;;;;;;;8.00;7.80;;;;;25.14;54.21;100038.19;5093115;28;8861;-60
2023/09/28 10:07:32;;;;;;;;;6.20;6.20;;;;;25.28;54.41;100039.84;5093432;28;8826;-59
2023/09/28 10:10:14;;;;;;;;;5.80;5.20;;;;;25.43;54.95;100044.03;5093200;28;8830;-58
2023/09/28 10:12:44;;;;;;;;;7.40;7.00;;;;;25.48;54.26;100051.56;5092318;28;8818;-60
2023/09/28 10:15:13;;;;;;;;;9.00;9.00;;;;;25.62;54.06;100045.00;5092746;28;8837;-60
2023/09/28 10:17:41;;;;;;;;;9.80;9.40;;;;;25.57;54.18;100042.09;5091999;28;8830;-57
2023/09/28 10:20:09;;;;;;;;;8.60;7.00;;;;;25.57;54.14;100048.38;5091122;28;8829;-58
2023/09/28 10:22:40;;;;;;;;;8.00;7.00;;;;;25.63;54.57;100060.31;5091660;28;8849;-59
2023/09/28 10:25:15;;;;;;;;;7.60;7.60;;;;;25.41;54.83;100067.09;5091805;28;8850;-60
2023/09/28 10:27:44;;;;;;;;;10.80;9.00;;;;;25.05;56.07;100066.72;5091722;28;8860;-60
2023/09/28 10:30:12;;;;;;;;;7.80;7.80;;;;;24.63;56.53;100069.88;5091267;28;8818;-57
2023/09/28 10:32:40;;;;;;;;;9.40;8.80;;;;;24.32;57.51;100067.72;5092566;28;8830;-60
2023/09/28 10:35:08;;;;;;;;;7.40;7.00;;;;;24.10;57.99;100062.63;5092301;28;8826;-60
2023/09/28 10:37:37;;;;;;;;;6.80;6.80;;;;;23.95;58.34;100081.00;5091310;28;8850;-59
2023/09/28 10:40:06;;;;;;;;;10.20;9.00;;;;;23.88;58.19;100077.41;5090800;28;8877;-59
2023/09/28 10:42:34;;;;;;;;;5.40;5.00;;;;;23.94;57.78;100076.59;5091902;28;8852;-58
2023/09/28 10:45:02;;;;;;;;;10.00;8.60;;;;;23.94;57.91;100076.59;5092036;28;9499;-60
2023/09/28 10:47:32;;;;;;;;;8.60;7.80;;;;;23.86;57.99;100065.91;5092992;28;8830;-57
2023/09/28 10:50:01;;;;;;;;;8.60;8.40;;;;;23.95;57.89;100078.28;5092385;28;8960;-57
2023/09/28 10:52:29;;;;;;;;;9.00;9.00;;;;;24.10;57.51;100065.34;5092870;28;8836;-59
2023/09/28 10:54:57;;;;;;;;;10.60;10.00;;;;;24.39;57.02;100070.44;5092265;28;9480;-57
2023/09/28 10:57:26;;;;;;;;;9.40;8.60;;;;;24.54;56.39;100069.22;5091226;28;8830;-58
2023/09/28 10:59:54;;;;;;;;;11.20;10.80;;;;;24.54;56.31;100071.94;5092946;28;8952;-59
2023/09/28 11:02:21;;;;;;;;;9.60;8.80;;;;;24.62;56.54;100068.19;5091451;28;8838;-60
2023/09/28 11:04:50;;;;;;;;;10.60;10.20;;;;;24.79;56.17;100061.31;5090689;28;8862;-60
2023/09/28 11:07:20;;;;;;;;;10.20;9.80;;;;;25.04;55.52;100054.16;5089245;28;8834;-59
2023/09/28 11:09:48;;;;;;;;;12.00;10.80;;;;;25.21;54.93;100052.63;5090396;28;8834;-58
2023/09/28 11:12:16;;;;;;;;;11.00;11.00;;;;;25.20;55.26;100040.91;5089347;28;8838;-59
2023/09/28 11:14:44;;;;;;;;;11.40;11.40;;;;;25.29;55.24;100044.25;5089084;28;8842;-58
2023/09/28 11:17:12;;;;;;;;;10.60;10.60;;;;;25.60;54.80;100037.84;5089551;28;8830;-58
2023/09/28 11:19:41;;;;;;;;;11.40;11.00;;;;;26.02;53.91;100045.47;5089515;28;8822;-57
2023/09/28 11:22:09;;;;;;;;;9.40;9.40;;;;;26.35;53.21;100046.09;5091373;28;8830;-60
2023/09/28 11:24:37;;;;;;;;;14.20;13.60;;;;;26.66;52.92;100037.06;5090841;28;8826;-58
2023/09/28 11:27:05;;;;;;;;;10.80;10.80;;;;;26.82;52.36;100042.81;5091590;28;8822;-58
2023/09/28 11:29:34;;;;;;;;;12.00;12.00;;;;;27.11;52.02;100047.59;5090391;28;8830;-58
2023/09/28 11:32:02;;;;;;;;;8.80;8.00;;;;;27.59;50.96;100032.13;5090415;28;8833;-59
2023/09/28 11:34:34;;;;;;;;;11.40;10.80;;;;;28.19;49.96;100039.38;5090152;28;9196;-58
2023/09/28 11:37:01;;;;;;;;;13.00;12.40;;;;;28.63;49.07;100036.19;5090405;28;8981;-60
2023/09/28 11:39:32;;;;;;;;;12.00;11.60;;;;;29.20;48.28;100032.66;5089998;28;8849;-58
2023/09/28 11:42:00;;;;;;;;;11.20;9.60;;;;;29.74;47.66;100025.91;5089175;28;8840;-58